Time;durP1;ratioP1;P1;durP2;ratioP2;P2;SDS_P1;SDS_P2;PMS_P1;PMS_P2;Temp;Humidity;BMP_temperature;BMP_pressure;BME280_temperature;BME280_humidity;BME280_pressure;Samples;Min_cycle;Max_cycle;Signal;HPM_P1;HPM_P2
2022/05/06 00:00:04;;;;;;;8.48;6.45;;;;;;;;;;5074012;28;20039;-68
2022/05/06 00:02:29;;;;;;;7.60;6.32;;;;;;;;;;5080648;28;20044;-67
2022/05/06 00:04:54;;;;;;;7.22;5.88;;;;;;;;;;5082104;28;20424;-67
2022/05/06 00:07:20;;;;;;;5.93;5.20;;;;;;;;;;5081633;28;20071;-69
2022/05/06 00:09:45;;;;;;;7.68;5.07;;;;;;;;;;5080748;28;20034;-66
2022/05/06 00:12:12;;;;;;;10.25;7.65;;;;;;;;;;5063176;28;20034;-67
2022/05/06 00:14:38;;;;;;;9.65;6.45;;;;;;;;;;5082030;28;20020;-67
2022/05/06 00:17:04;;;;;;;14.25;6.97;;;;;;;;;;5082243;28;20034;-72
2022/05/06 00:19:29;;;;;;;16.35;9.82;;;;;;;;;;5081330;28;20327;-69
2022/05/06 00:21:55;;;;;;;16.58;9.65;;;;;;;;;;5081574;28;20027;-69
2022/05/06 00:24:20;;;;;;;9.43;7.57;;;;;;;;;;5081645;28;20028;-66
2022/05/06 00:26:45;;;;;;;12.68;9.27;;;;;;;;;;5077119;28;20332;-67
2022/05/06 00:29:11;;;;;;;14.35;8.40;;;;;;;;;;5072375;28;20024;-66
2022/05/06 00:31:36;;;;;;;11.05;7.90;;;;;;;;;;5080992;28;20028;-67
2022/05/06 00:34:01;;;;;;;13.55;8.57;;;;;;;;;;5080945;28;20028;-66
2022/05/06 00:36:27;;;;;;;10.05;7.75;;;;;;;;;;5080676;28;20023;-68
2022/05/06 00:38:54;;;;;;;9.88;8.10;;;;;;;;;;5081479;28;20031;-68
2022/05/06 00:41:19;;;;;;;10.80;8.80;;;;;;;;;;5081375;28;20089;-68
2022/05/06 00:43:46;;;;;;;10.38;8.40;;;;;;;;;;5081044;28;20422;-70
2022/05/06 00:46:12;;;;;;;9.30;7.05;;;;;;;;;;5081502;28;20028;-68
2022/05/06 00:48:40;;;;;;;7.95;7.13;;;;;;;;;;5080656;28;20054;-71
2022/05/06 00:51:06;;;;;;;11.27;7.22;;;;;;;;;;5080940;28;20034;-69
2022/05/06 00:53:32;;;;;;;10.02;7.85;;;;;;;;;;5079808;28;20359;-68
2022/05/06 00:55:58;;;;;;;8.90;7.13;;;;;;;;;;5080351;28;20028;-70
2022/05/06 00:58:29;;;;;;;9.65;6.70;;;;;;;;;;5081199;28;20099;-68
2022/05/06 01:00:54;;;;;;;8.38;6.88;;;;;;;;;;5080628;28;20032;-67
2022/05/06 01:03:19;;;;;;;9.35;6.72;;;;;;;;;;5081477;28;20043;-67
2022/05/06 01:05:45;;;;;;;9.13;6.57;;;;;;;;;;5079557;28;20413;-70
2022/05/06 01:08:10;;;;;;;8.32;6.93;;;;;;;;;;5080579;28;20047;-69
2022/05/06 01:10:37;;;;;;;13.70;10.25;;;;;;;;;;5064833;28;20359;-70
2022/05/06 01:13:04;;;;;;;13.27;9.65;;;;;;;;;;5082968;28;20167;-71
2022/05/06 01:15:29;;;;;;;11.23;9.73;;;;;;;;;;5081655;28;20455;-69
2022/05/06 01:17:55;;;;;;;12.27;8.77;;;;;;;;;;5073849;28;20020;-65
2022/05/06 01:20:21;;;;;;;7.70;6.90;;;;;;;;;;5070861;28;20132;-67
2022/05/06 01:22:48;;;;;;;10.15;7.00;;;;;;;;;;5075892;28;20130;-68
2022/05/06 01:25:14;;;;;;;8.50;7.13;;;;;;;;;;5072117;28;20439;-71
2022/05/06 01:27:47;;;;;;;7.70;6.22;;;;;;;;;;5073383;28;20111;-67
2022/05/06 01:30:20;;;;;;;9.35;6.82;;;;;;;;;;5077805;28;20119;-67
2022/05/06 01:32:45;;;;;;;8.85;6.65;;;;;;;;;;5080037;28;20346;-66
2022/05/06 01:35:11;;;;;;;7.70;5.28;;;;;;;;;;5077055;28;20024;-67
2022/05/06 01:37:37;;;;;;;6.78;5.57;;;;;;;;;;5071885;28;20052;-66
2022/05/06 01:40:04;;;;;;;6.93;6.05;;;;;;;;;;5079411;28;20051;-70
2022/05/06 01:42:31;;;;;;;8.30;5.68;;;;;;;;;;5080143;28;20339;-69
2022/05/06 01:44:57;;;;;;;8.80;6.05;;;;;;;;;;5079432;28;20412;-67
2022/05/06 01:47:25;;;;;;;7.35;6.35;;;;;;;;;;5079669;28;20085;-69
2022/05/06 01:49:52;;;;;;;14.45;6.50;;;;;;;;;;5079910;28;20016;-67
2022/05/06 01:52:18;;;;;;;7.18;5.90;;;;;;;;;;5080258;28;20111;-71
2022/05/06 01:54:43;;;;;;;8.32;6.53;;;;;;;;;;5079671;28;20391;-67
2022/05/06 01:57:09;;;;;;;7.38;6.32;;;;;;;;;;5069199;28;20526;-71
2022/05/06 01:59:34;;;;;;;7.70;5.72;;;;;;;;;;5079378;28;20047;-67
2022/05/06 02:01:59;;;;;;;8.57;6.35;;;;;;;;;;5079735;28;20020;-66
2022/05/06 02:07:08;;;;;;;8.75;6.35;;;;;;;;;;5079453;28;20248;-66
2022/05/06 02:09:34;;;;;;;8.50;6.32;;;;;;;;;;5079482;28;20106;-67
2022/05/06 02:11:59;;;;;;;8.40;7.03;;;;;;;;;;5079946;28;20034;-66
2022/05/06 02:14:24;;;;;;;12.07;8.30;;;;;;;;;;5079041;28;20024;-65
2022/05/06 02:16:50;;;;;;;12.90;7.55;;;;;;;;;;5079421;28;20055;-70
2022/05/06 02:19:15;;;;;;;12.20;6.82;;;;;;;;;;5075342;28;20020;-67
2022/05/06 02:21:40;;;;;;;9.05;5.93;;;;;;;;;;5071119;28;20115;-70
2022/05/06 02:24:06;;;;;;;7.63;6.50;;;;;;;;;;5079632;28;20043;-67
2022/05/06 02:26:31;;;;;;;7.68;6.18;;;;;;;;;;5079911;28;20042;-68
2022/05/06 02:28:57;;;;;;;17.90;11.23;;;;;;;;;;5079206;28;20028;-66
2022/05/06 02:34:06;;;;;;;11.25;7.75;;;;;;;;;;5078004;28;20523;-66
2022/05/06 02:36:31;;;;;;;7.78;6.15;;;;;;;;;;5070786;28;20107;-67
2022/05/06 02:38:57;;;;;;;8.25;6.78;;;;;;;;;;5066869;28;20868;-69
2022/05/06 02:41:22;;;;;;;10.40;7.13;;;;;;;;;;5066846;28;20056;-67
2022/05/06 02:43:47;;;;;;;9.00;7.18;;;;;;;;;;5076617;28;20040;-67
2022/05/06 02:46:13;;;;;;;7.80;6.57;;;;;;;;;;5071122;28;20278;-69
2022/05/06 02:48:38;;;;;;;10.55;6.82;;;;;;;;;;5065846;28;20062;-67
2022/05/06 02:51:04;;;;;;;8.05;6.70;;;;;;;;;;5078578;28;20410;-66
2022/05/06 02:53:29;;;;;;;9.60;6.35;;;;;;;;;;5079473;28;20016;-67
2022/05/06 02:55:54;;;;;;;8.75;7.28;;;;;;;;;;5079219;28;20443;-72
2022/05/06 02:58:20;;;;;;;8.98;6.63;;;;;;;;;;5071794;28;20031;-68
2022/05/06 03:00:45;;;;;;;7.70;6.57;;;;;;;;;;5065968;28;20066;-71
2022/05/06 03:03:10;;;;;;;7.80;6.40;;;;;;;;;;5071055;28;20035;-68
2022/05/06 03:05:36;;;;;;;8.38;6.38;;;;;;;;;;5079395;28;20028;-69
2022/05/06 03:08:01;;;;;;;7.65;6.13;;;;;;;;;;5078855;28;20063;-68
2022/05/06 03:10:26;;;;;;;8.20;5.53;;;;;;;;;;5078748;28;20415;-69
2022/05/06 03:12:56;;;;;;;7.95;6.45;;;;;;;;;;5079228;28;20741;-70
2022/05/06 03:15:21;;;;;;;8.75;6.22;;;;;;;;;;5078861;28;20102;-68
2022/05/06 03:17:46;;;;;;;8.68;5.97;;;;;;;;;;5081799;28;20035;-69
2022/05/06 03:20:12;;;;;;;8.40;6.70;;;;;;;;;;5064308;28;20360;-67
2022/05/06 03:22:39;;;;;;;8.10;6.18;;;;;;;;;;5083035;28;20040;-67
2022/05/06 03:25:05;;;;;;;8.00;6.25;;;;;;;;;;5082806;28;20024;-67
2022/05/06 03:30:14;;;;;;;7.18;5.47;;;;;;;;;;5079894;28;20034;-66
2022/05/06 03:32:39;;;;;;;10.32;6.03;;;;;;;;;;5082515;28;20023;-68
2022/05/06 03:35:05;;;;;;;9.52;5.93;;;;;;;;;;5082642;28;20070;-70
2022/05/06 03:37:30;;;;;;;13.55;6.10;;;;;;;;;;5082601;28;20130;-67
2022/05/06 03:39:56;;;;;;;7.97;5.97;;;;;;;;;;5082562;28;20020;-66
2022/05/06 03:42:22;;;;;;;8.02;5.97;;;;;;;;;;5082599;28;20041;-67
2022/05/06 03:44:47;;;;;;;6.20;5.60;;;;;;;;;;5082375;28;20024;-68
2022/05/06 03:47:12;;;;;;;9.30;5.22;;;;;;;;;;5082652;28;20115;-70
2022/05/06 03:49:38;;;;;;;5.35;4.68;;;;;;;;;;5082494;28;20363;-69
2022/05/06 03:52:03;;;;;;;7.22;5.15;;;;;;;;;;5081297;28;20036;-70
2022/05/06 03:54:29;;;;;;;7.30;5.72;;;;;;;;;;5081811;28;20036;-70
2022/05/06 03:56:54;;;;;;;10.10;5.72;;;;;;;;;;5055042;28;20027;-69
2022/05/06 03:59:20;;;;;;;6.43;5.55;;;;;;;;;;5073067;28;20028;-69
2022/05/06 04:01:45;;;;;;;7.32;5.53;;;;;;;;;;5081249;28;20039;-67
2022/05/06 04:04:10;;;;;;;10.38;5.45;;;;;;;;;;5081939;28;20050;-68
2022/05/06 04:06:36;;;;;;;9.30;5.32;;;;;;;;;;5080445;28;20527;-69
2022/05/06 04:09:01;;;;;;;8.25;6.38;;;;;;;;;;5081315;28;20024;-67
2022/05/06 04:11:26;;;;;;;13.75;7.20;;;;;;;;;;5074731;28;20043;-70
2022/05/06 04:13:52;;;;;;;11.68;7.47;;;;;;;;;;5066973;28;20036;-70
2022/05/06 04:16:17;;;;;;;9.35;6.28;;;;;;;;;;5067290;28;20035;-70
2022/05/06 04:18:42;;;;;;;7.78;5.75;;;;;;;;;;5068094;28;20103;-68
2022/05/06 04:23:51;;;;;;;7.65;5.97;;;;;;;;;;5067422;28;20481;-71
2022/05/06 04:26:18;;;;;;;9.82;7.57;;;;;;;;;;5068768;28;20024;-68
2022/05/06 04:28:44;;;;;;;7.28;6.00;;;;;;;;;;5073316;28;20024;-67
2022/05/06 04:31:09;;;;;;;7.68;6.38;;;;;;;;;;5076485;28;20028;-67
2022/05/06 04:33:37;;;;;;;8.57;6.28;;;;;;;;;;5063601;28;20028;-69
2022/05/06 04:36:04;;;;;;;8.10;6.72;;;;;;;;;;5080602;28;20035;-67
2022/05/06 04:38:29;;;;;;;13.90;10.82;;;;;;;;;;5081257;28;20046;-69
2022/05/06 04:40:55;;;;;;;16.88;11.15;;;;;;;;;;5081383;28;20020;-71
2022/05/06 04:43:21;;;;;;;8.73;7.45;;;;;;;;;;5081266;28;20035;-71
2022/05/06 04:45:46;;;;;;;8.38;7.03;;;;;;;;;;5071120;28;20332;-69
2022/05/06 04:48:12;;;;;;;7.10;6.35;;;;;;;;;;5081310;28;20028;-73
2022/05/06 04:50:37;;;;;;;8.40;7.30;;;;;;;;;;5081938;28;20024;-67
2022/05/06 04:53:05;;;;;;;10.20;7.25;;;;;;;;;;5082278;28;20973;-71
2022/05/06 04:55:30;;;;;;;11.57;7.50;;;;;;;;;;5086553;28;20111;-71
2022/05/06 04:57:55;;;;;;;8.65;7.35;;;;;;;;;;5085246;28;20131;-72
2022/05/06 05:00:21;;;;;;;9.27;7.88;;;;;;;;;;5073183;28;20216;-68
2022/05/06 05:02:46;;;;;;;11.70;7.95;;;;;;;;;;5068965;28;20435;-73
2022/05/06 05:05:12;;;;;;;10.45;8.13;;;;;;;;;;5068264;28;20420;-68
2022/05/06 05:07:38;;;;;;;8.65;7.75;;;;;;;;;;5051408;28;20383;-67
2022/05/06 05:10:03;;;;;;;10.32;7.63;;;;;;;;;;5067356;28;20032;-69
2022/05/06 05:12:29;;;;;;;10.00;7.43;;;;;;;;;;5077107;28;20454;-69
2022/05/06 05:14:54;;;;;;;10.30;7.40;;;;;;;;;;5073977;28;20027;-68
2022/05/06 05:17:19;;;;;;;10.95;9.07;;;;;;;;;;5077103;28;20446;-72
2022/05/06 05:19:45;;;;;;;12.63;11.20;;;;;;;;;;5067994;28;20406;-72
2022/05/06 05:22:10;;;;;;;19.52;10.93;;;;;;;;;;5067490;28;20029;-69
2022/05/06 05:24:35;;;;;;;22.70;16.13;;;;;;;;;;5067154;28;20185;-72
2022/05/06 05:27:01;;;;;;;23.50;17.10;;;;;;;;;;5066552;28;20067;-71
2022/05/06 05:29:26;;;;;;;15.73;12.13;;;;;;;;;;5067857;28;20110;-66
2022/05/06 05:31:52;;;;;;;14.20;9.30;;;;;;;;;;5071171;28;20034;-68
2022/05/06 05:34:17;;;;;;;11.90;9.50;;;;;;;;;;5070377;28;20043;-68
2022/05/06 05:36:43;;;;;;;12.27;9.60;;;;;;;;;;5079797;28;20034;-65
2022/05/06 05:39:08;;;;;;;11.15;10.02;;;;;;;;;;5079656;28;20028;-68
2022/05/06 05:41:34;;;;;;;15.48;10.40;;;;;;;;;;5075481;28;20129;-70
2022/05/06 05:49:28;;;;;;;9.38;7.93;;;;;;;;;;5067883;28;20030;-70
2022/05/06 05:51:54;;;;;;;12.30;9.15;;;;;;;;;;5070841;28;20027;-69
2022/05/06 05:54:19;;;;;;;11.60;9.50;;;;;;;;;;5065957;28;20046;-70
2022/05/06 05:56:45;;;;;;;12.00;9.90;;;;;;;;;;5074529;28;20651;-72
2022/05/06 05:59:10;;;;;;;9.48;8.50;;;;;;;;;;5071321;28;20031;-69
2022/05/06 06:01:36;;;;;;;12.48;8.73;;;;;;;;;;5079415;28;21034;-68
2022/05/06 06:04:02;;;;;;;9.55;7.90;;;;;;;;;;5073690;28;20472;-72
2022/05/06 06:06:28;;;;;;;12.82;8.50;;;;;;;;;;5071343;28;20097;-67
2022/05/06 06:08:53;;;;;;;10.73;8.70;;;;;;;;;;5080335;28;20020;-67
2022/05/06 06:11:18;;;;;;;11.10;9.70;;;;;;;;;;5080581;28;20556;-72
2022/05/06 06:13:44;;;;;;;14.35;9.55;;;;;;;;;;5079179;28;20043;-70
2022/05/06 06:16:09;;;;;;;12.57;9.35;;;;;;;;;;5079477;28;20095;-67
2022/05/06 06:18:34;;;;;;;17.85;11.35;;;;;;;;;;5079132;28;20666;-72
2022/05/06 06:21:00;;;;;;;16.88;12.25;;;;;;;;;;5079115;28;20483;-68
2022/05/06 06:23:25;;;;;;;15.20;10.65;;;;;;;;;;5079402;28;20437;-70
2022/05/06 06:25:50;;;;;;;14.35;11.05;;;;;;;;;;5079061;28;20358;-68
2022/05/06 06:28:16;;;;;;;16.45;10.73;;;;;;;;;;5079376;28;20423;-69
2022/05/06 06:30:41;;;;;;;12.88;9.90;;;;;;;;;;5079445;28;20024;-71
2022/05/06 06:33:10;;;;;;;12.80;9.70;;;;;;;;;;5079246;28;20020;-67
2022/05/06 06:35:35;;;;;;;12.50;9.90;;;;;;;;;;5078955;28;20058;-67
2022/05/06 06:38:01;;;;;;;14.13;10.73;;;;;;;;;;5078480;28;20036;-67
2022/05/06 06:40:26;;;;;;;14.93;11.73;;;;;;;;;;5079047;28;20039;-67
2022/05/06 06:42:52;;;;;;;15.68;12.43;;;;;;;;;;5078746;28;20064;-67
2022/05/06 06:45:17;;;;;;;15.07;12.30;;;;;;;;;;5079167;28;20431;-67
2022/05/06 06:47:43;;;;;;;12.95;11.52;;;;;;;;;;5061204;28;20078;-71
2022/05/06 06:50:08;;;;;;;19.95;13.15;;;;;;;;;;5079994;28;20024;-72
2022/05/06 06:52:34;;;;;;;16.85;13.25;;;;;;;;;;5083085;28;20021;-71
2022/05/06 06:54:59;;;;;;;17.60;12.05;;;;;;;;;;5083099;28;20062;-66
2022/05/06 06:57:26;;;;;;;15.52;12.18;;;;;;;;;;5082189;28;20026;-70
2022/05/06 06:59:51;;;;;;;12.45;10.70;;;;;;;;;;5083463;28;20056;-68
2022/05/06 07:02:16;;;;;;;11.27;8.18;;;;;;;;;;5083435;28;20113;-67
2022/05/06 07:04:42;;;;;;;9.02;6.63;;;;;;;;;;5083518;28;20077;-68
2022/05/06 07:12:35;;;;;;;9.25;6.00;;;;;;;;;;5083772;28;20070;-69
2022/05/06 07:15:02;;;;;;;12.57;5.80;;;;;;;;;;5082022;28;20023;-69
2022/05/06 07:17:28;;;;;;;5.50;5.00;;;;;;;;;;5083299;28;20028;-69
2022/05/06 07:19:53;;;;;;;6.30;5.65;;;;;;;;;;5083214;28;20016;-68
2022/05/06 07:22:18;;;;;;;8.63;5.63;;;;;;;;;;5082931;28;20035;-74
2022/05/06 07:24:44;;;;;;;8.85;7.13;;;;;;;;;;5083181;28;20039;-70
2022/05/06 07:27:09;;;;;;;7.18;6.45;;;;;;;;;;5083265;28;20067;-69
2022/05/06 07:29:34;;;;;;;8.10;6.47;;;;;;;;;;5083544;28;20133;-72
2022/05/06 07:32:00;;;;;;;7.80;6.80;;;;;;;;;;5083571;28;20021;-70
2022/05/06 07:34:25;;;;;;;9.52;6.93;;;;;;;;;;5083815;28;20036;-69
2022/05/06 07:36:51;;;;;;;9.68;6.93;;;;;;;;;;5083075;28;20359;-69
2022/05/06 07:39:16;;;;;;;8.50;6.65;;;;;;;;;;5083474;28;20031;-71
2022/05/06 07:41:43;;;;;;;8.82;7.65;;;;;;;;;;5082858;28;20471;-68
2022/05/06 07:44:08;;;;;;;9.52;7.07;;;;;;;;;;5083249;28;20024;-68
2022/05/06 07:46:34;;;;;;;9.02;7.47;;;;;;;;;;5083771;28;20089;-70
2022/05/06 07:49:00;;;;;;;9.23;7.10;;;;;;;;;;5082575;28;20035;-71
2022/05/06 07:51:25;;;;;;;8.35;7.03;;;;;;;;;;5082349;28;20051;-69
2022/05/06 07:53:52;;;;;;;7.40;6.70;;;;;;;;;;5082981;28;20111;-69
2022/05/06 07:56:20;;;;;;;11.52;7.55;;;;;;;;;;5083419;28;20446;-70
2022/05/06 07:58:45;;;;;;;14.00;7.70;;;;;;;;;;5082882;28;20024;-68
2022/05/06 08:01:12;;;;;;;8.43;7.45;;;;;;;;;;5082400;28;20016;-68
2022/05/06 08:06:21;;;;;;;8.30;6.70;;;;;;;;;;5082472;28;20181;-69
2022/05/06 08:08:46;;;;;;;7.38;6.68;;;;;;;;;;5082552;28;20103;-67
2022/05/06 08:11:11;;;;;;;9.10;6.93;;;;;;;;;;5082138;28;20132;-66
2022/05/06 08:13:37;;;;;;;7.63;6.70;;;;;;;;;;5079258;28;20036;-64
2022/05/06 08:16:02;;;;;;;7.20;6.50;;;;;;;;;;5080998;28;20031;-65
2022/05/06 08:18:28;;;;;;;13.38;7.22;;;;;;;;;;5082544;28;20028;-66
2022/05/06 08:20:53;;;;;;;7.00;6.30;;;;;;;;;;5081463;28;20032;-66
2022/05/06 08:23:22;;;;;;;7.03;6.15;;;;;;;;;;5082538;28;20101;-69
2022/05/06 08:25:51;;;;;;;7.47;6.68;;;;;;;;;;5082459;28;20028;-68
2022/05/06 08:28:19;;;;;;;8.65;6.60;;;;;;;;;;5081975;28;20032;-67
2022/05/06 08:30:44;;;;;;;7.55;6.45;;;;;;;;;;5087648;28;20024;-68
2022/05/06 08:33:10;;;;;;;7.28;6.50;;;;;;;;;;5088498;28;20355;-69
2022/05/06 08:35:35;;;;;;;8.43;6.53;;;;;;;;;;5082238;28;20028;-69
2022/05/06 08:38:00;;;;;;;8.25;6.50;;;;;;;;;;5082119;28;20024;-69
2022/05/06 08:40:28;;;;;;;7.03;6.32;;;;;;;;;;5082362;28;20036;-69
2022/05/06 08:42:54;;;;;;;7.20;6.50;;;;;;;;;;5080805;28;20031;-70
2022/05/06 08:50:53;;;;;;;10.88;8.15;;;;;;;;;;5081236;28;20035;-68
2022/05/06 08:53:22;;;;;;;7.32;6.55;;;;;;;;;;5080101;28;20028;-69
2022/05/06 08:55:58;;;;;;;7.00;6.25;;;;;;;;;;5080374;28;20424;-70
2022/05/06 08:58:24;;;;;;;10.35;6.13;;;;;;;;;;5081342;28;20031;-71
2022/05/06 09:00:49;;;;;;;6.80;5.72;;;;;;;;;;5081370;28;20035;-69
2022/05/06 09:03:15;;;;;;;9.00;6.30;;;;;;;;;;5080978;28;20069;-70
2022/05/06 09:05:47;;;;;;;8.25;6.53;;;;;;;;;;5080812;28;20450;-69
2022/05/06 09:08:13;;;;;;;9.13;6.22;;;;;;;;;;5080859;28;20054;-68
2022/05/06 09:10:38;;;;;;;7.63;5.78;;;;;;;;;;5079600;28;20024;-70
2022/05/06 09:13:04;;;;;;;9.48;7.00;;;;;;;;;;5080188;28;20028;-69
2022/05/06 09:18:17;;;;;;;10.95;7.22;;;;;;;;;;5081295;28;20043;-69
2022/05/06 09:20:42;;;;;;;8.02;6.82;;;;;;;;;;5081671;28;20028;-69
2022/05/06 09:23:28;;;;;;;8.38;6.25;;;;;;;;;;5080007;28;20036;-71
2022/05/06 09:25:54;;;;;;;7.80;6.43;;;;;;;;;;5081196;28;20103;-71
2022/05/06 09:28:29;;;;;;;8.50;5.93;;;;;;;;;;5081135;28;20116;-68
2022/05/06 09:31:07;;;;;;;9.45;5.43;;;;;;;;;;5080837;28;20071;-74
2022/05/06 09:33:35;;;;;;;7.30;5.30;;;;;;;;;;5081234;28;20032;-72
2022/05/06 09:36:20;;;;;;;6.00;5.40;;;;;;;;;;5080486;28;20022;-71
2022/05/06 09:39:04;;;;;;;7.88;6.03;;;;;;;;;;5068867;28;20032;-71
2022/05/06 09:41:30;;;;;;;7.70;5.95;;;;;;;;;;5081893;28;20082;-71
2022/05/06 09:44:02;;;;;;;9.18;6.68;;;;;;;;;;5080522;28;20059;-71
2022/05/06 09:46:28;;;;;;;6.28;5.68;;;;;;;;;;5080545;28;20032;-71
2022/05/06 09:48:57;;;;;;;9.93;5.93;;;;;;;;;;5081321;28;20446;-71
2022/05/06 09:51:26;;;;;;;7.75;5.28;;;;;;;;;;5081321;28;20016;-71
2022/05/06 09:53:52;;;;;;;10.35;7.13;;;;;;;;;;5080381;28;20052;-71
2022/05/06 09:56:19;;;;;;;12.65;8.38;;;;;;;;;;5080576;28;20080;-73
2022/05/06 09:58:45;;;;;;;8.95;6.38;;;;;;;;;;5080343;28;20112;-72
2022/05/06 10:01:11;;;;;;;6.20;5.53;;;;;;;;;;5081394;28;20498;-70
2022/05/06 10:03:37;;;;;;;10.77;7.38;;;;;;;;;;5079707;28;20123;-71
2022/05/06 10:06:04;;;;;;;13.55;7.35;;;;;;;;;;5081340;28;20020;-71
2022/05/06 10:08:30;;;;;;;6.97;5.05;;;;;;;;;;5081742;28;20028;-71
2022/05/06 10:10:58;;;;;;;8.05;5.53;;;;;;;;;;5081325;28;20023;-71
2022/05/06 10:13:24;;;;;;;7.63;5.32;;;;;;;;;;5081140;28;20134;-73
2022/05/06 10:15:51;;;;;;;6.32;5.03;;;;;;;;;;5081634;28;20032;-71
2022/05/06 10:18:32;;;;;;;6.80;4.97;;;;;;;;;;5081612;28;20359;-72
2022/05/06 10:20:58;;;;;;;6.32;5.53;;;;;;;;;;5079120;28;20508;-72
2022/05/06 10:23:41;;;;;;;5.25;4.45;;;;;;;;;;5070843;28;20108;-70
2022/05/06 10:26:06;;;;;;;5.57;4.57;;;;;;;;;;5079413;28;20061;-72
2022/05/06 10:34:05;;;;;;;7.75;5.47;;;;;;;;;;5079701;28;20484;-67
2022/05/06 10:36:50;;;;;;;5.32;4.47;;;;;;;;;;5074510;28;20055;-68
2022/05/06 10:39:36;;;;;;;6.97;4.13;;;;;;;;;;5067393;28;20023;-69
2022/05/06 10:42:04;;;;;;;6.03;3.72;;;;;;;;;;5078683;28;20055;-71
2022/05/06 10:44:42;;;;;;;5.13;4.40;;;;;;;;;;5061340;28;20393;-69
2022/05/06 10:47:11;;;;;;;7.35;3.88;;;;;;;;;;5080636;28;20020;-68
2022/05/06 10:49:39;;;;;;;5.33;4.60;;;;;;;;;;5080322;28;20383;-69
2022/05/06 10:52:13;;;;;;;4.50;4.10;;;;;;;;;;5079836;28;20035;-71
2022/05/06 10:54:39;;;;;;;7.15;4.05;;;;;;;;;;5076020;28;20055;-68
2022/05/06 10:57:07;;;;;;;4.13;3.72;;;;;;;;;;5066364;28;20061;-69
2022/05/06 10:59:48;;;;;;;5.70;4.00;;;;;;;;;;5078626;28;20028;-68
2022/05/06 11:02:13;;;;;;;6.47;4.35;;;;;;;;;;5079591;28;20676;-71
2022/05/06 11:04:40;;;;;;;7.78;4.45;;;;;;;;;;5069723;28;20032;-71
2022/05/06 11:07:12;;;;;;;5.03;4.00;;;;;;;;;;5075560;28;20393;-69
2022/05/06 11:09:38;;;;;;;5.13;3.80;;;;;;;;;;5080532;28;20032;-68
2022/05/06 11:12:03;;;;;;;8.45;4.60;;;;;;;;;;5072866;28;20024;-68
2022/05/06 11:14:29;;;;;;;6.35;4.00;;;;;;;;;;5066193;28;20028;-68
2022/05/06 11:17:13;;;;;;;4.63;3.50;;;;;;;;;;5065697;28;20020;-73
2022/05/06 11:19:38;;;;;;;4.13;3.72;;;;;;;;;;5072543;28;20042;-69
2022/05/06 11:22:07;;;;;;;4.50;4.10;;;;;;;;;;5076500;28;20986;-71
2022/05/06 11:24:32;;;;;;;6.65;4.05;;;;;;;;;;5078912;28;20035;-69
2022/05/06 11:27:13;;;;;;;4.68;4.03;;;;;;;;;;5067434;28;20102;-70
2022/05/06 11:29:49;;;;;;;5.82;4.78;;;;;;;;;;5079967;28;20031;-69
2022/05/06 11:32:14;;;;;;;6.50;4.20;;;;;;;;;;5080486;28;20024;-67
2022/05/06 11:35:02;;;;;;;6.32;4.07;;;;;;;;;;5078321;28;20119;-69
2022/05/06 11:37:33;;;;;;;6.05;4.38;;;;;;;;;;5067686;28;20602;-71
2022/05/06 11:42:43;;;;;;;4.68;4.28;;;;;;;;;;5081426;28;20393;-68
2022/05/06 11:48:03;;;;;;;6.93;3.88;;;;;;;;;;5082721;28;20370;-68
2022/05/06 11:50:28;;;;;;;6.90;4.13;;;;;;;;;;5083261;28;20031;-71
2022/05/06 11:52:54;;;;;;;5.70;4.20;;;;;;;;;;5082379;28;20039;-70
2022/05/06 11:55:20;;;;;;;6.20;4.05;;;;;;;;;;5081077;28;21269;-71
2022/05/06 11:57:45;;;;;;;4.70;4.00;;;;;;;;;;5080786;28;20028;-71
2022/05/06 12:00:14;;;;;;;6.70;4.05;;;;;;;;;;5082156;28;20024;-68
2022/05/06 12:02:47;;;;;;;4.72;4.32;;;;;;;;;;5083208;28;20492;-71
2022/05/06 12:05:13;;;;;;;6.03;4.25;;;;;;;;;;5064980;28;20024;-71
2022/05/06 12:07:42;;;;;;;7.22;3.47;;;;;;;;;;5088931;28;20560;-70
2022/05/06 12:10:07;;;;;;;;;;;;;;;;;;5088008;28;20031;-71
2022/05/06 12:12:32;;;;;;;6.20;3.95;;;;;;;;;;5083243;28;19912;-69
2022/05/06 12:15:10;;;;;;;5.70;4.05;;;;;;;;;;5082745;28;20024;-69
2022/05/06 12:17:36;;;;;;;4.93;3.70;;;;;;;;;;5081778;28;20427;-68
2022/05/06 12:20:01;;;;;;;4.15;3.75;;;;;;;;;;5082761;28;20102;-68
2022/05/06 12:22:26;;;;;;;6.00;4.05;;;;;;;;;;5082839;28;20035;-69
2022/05/06 12:24:55;;;;;;;6.47;3.83;;;;;;;;;;5082596;28;20145;-68
2022/05/06 12:27:37;;;;;;;5.82;4.07;;;;;;;;;;5082827;28;20036;-69
2022/05/06 12:30:03;;;;;;;6.40;4.07;;;;;;;;;;5083054;28;20024;-71
2022/05/06 12:32:29;;;;;;;5.38;4.28;;;;;;;;;;5081886;28;20485;-70
2022/05/06 12:35:04;;;;;;;9.88;8.60;;;;;;;;;;5082158;28;20106;-68
2022/05/06 12:37:30;;;;;;;7.70;6.28;;;;;;;;;;5082269;28;20043;-69
2022/05/06 12:39:58;;;;;;;7.82;7.13;;;;;;;;;;5082150;28;20020;-68
2022/05/06 12:42:24;;;;;;;6.57;5.20;;;;;;;;;;5083899;28;20382;-69
2022/05/06 12:44:49;;;;;;;5.63;4.13;;;;;;;;;;5084248;28;20031;-72
2022/05/06 12:49:59;;;;;;;7.00;5.50;;;;;;;;;;5082316;28;20041;-68
2022/05/06 12:52:25;;;;;;;5.53;4.80;;;;;;;;;;5082449;28;20020;-69
2022/05/06 12:54:50;;;;;;;6.60;4.63;;;;;;;;;;5062251;28;20039;-72
2022/05/06 12:57:15;;;;;;;4.07;3.60;;;;;;;;;;5082711;28;20115;-70
2022/05/06 12:59:41;;;;;;;5.70;3.45;;;;;;;;;;5082795;28;20028;-69
2022/05/06 13:02:07;;;;;;;6.53;3.80;;;;;;;;;;5064666;28;20030;-68
2022/05/06 13:04:33;;;;;;;5.15;4.15;;;;;;;;;;5082683;28;20563;-68
2022/05/06 13:06:59;;;;;;;6.07;4.20;;;;;;;;;;5082405;28;20055;-69
2022/05/06 13:09:25;;;;;;;10.88;4.55;;;;;;;;;;5083120;28;20016;-69
2022/05/06 13:11:50;;;;;;;4.45;3.80;;;;;;;;;;5081750;28;20777;-74
2022/05/06 13:14:15;;;;;;;4.93;4.25;;;;;;;;;;5083077;28;20039;-71
2022/05/06 13:16:41;;;;;;;5.45;4.05;;;;;;;;;;5082458;28;20024;-68
2022/05/06 13:19:09;;;;;;;6.03;3.35;;;;;;;;;;5082381;28;20354;-71
2022/05/06 13:21:34;;;;;;;4.93;4.20;;;;;;;;;;5081565;28;20030;-71
2022/05/06 13:24:00;;;;;;;5.32;3.95;;;;;;;;;;5082105;28;20055;-68
2022/05/06 13:26:25;;;;;;;4.22;3.50;;;;;;;;;;5082053;28;20032;-72
2022/05/06 13:28:50;;;;;;;4.75;3.70;;;;;;;;;;5048959;28;20052;-68
2022/05/06 13:31:16;;;;;;;4.75;3.92;;;;;;;;;;5082752;28;20351;-69
2022/05/06 13:33:41;;;;;;;5.32;3.60;;;;;;;;;;5082636;28;21064;-70
2022/05/06 13:36:07;;;;;;;3.58;2.90;;;;;;;;;;5082715;28;20032;-69
2022/05/06 13:38:32;;;;;;;5.47;3.40;;;;;;;;;;5082074;28;20069;-69
2022/05/06 13:40:57;;;;;;;5.28;3.40;;;;;;;;;;5082063;28;20028;-72
2022/05/06 13:43:23;;;;;;;6.25;3.00;;;;;;;;;;5082076;28;20031;-69
2022/05/06 13:45:48;;;;;;;4.90;3.17;;;;;;;;;;5082396;28;20024;-70
2022/05/06 13:48:13;;;;;;;4.68;3.10;;;;;;;;;;5082301;28;20085;-69
2022/05/06 13:50:39;;;;;;;3.17;2.75;;;;;;;;;;5082568;28;20032;-68
2022/05/06 13:53:06;;;;;;;4.85;3.40;;;;;;;;;;5081440;28;20438;-71
2022/05/06 14:01:00;;;;;;;15.75;10.50;;;;;;;;;;5082747;28;20030;-68
2022/05/06 14:03:25;;;;;;;7.53;5.55;;;;;;;;;;5081095;28;20028;-72
2022/05/06 14:05:50;;;;;;;8.52;6.20;;;;;;;;;;5080243;28;20032;-70
2022/05/06 14:08:16;;;;;;;11.50;5.15;;;;;;;;;;5080744;28;20078;-69
2022/05/06 14:10:41;;;;;;;6.70;3.83;;;;;;;;;;5081057;28;20028;-70
2022/05/06 14:13:06;;;;;;;5.57;3.63;;;;;;;;;;5081164;28;20415;-69
2022/05/06 14:15:34;;;;;;;6.50;3.70;;;;;;;;;;5082033;28;20459;-68
2022/05/06 14:17:59;;;;;;;3.75;3.38;;;;;;;;;;5081267;28;20024;-68
2022/05/06 14:20:25;;;;;;;6.50;3.92;;;;;;;;;;5082255;28;20024;-71
2022/05/06 14:22:50;;;;;;;4.65;3.25;;;;;;;;;;5081446;28;20032;-68
2022/05/06 14:25:16;;;;;;;6.32;3.35;;;;;;;;;;5080585;28;20023;-69
2022/05/06 14:27:42;;;;;;;5.00;3.40;;;;;;;;;;5080289;28;20024;-68
2022/05/06 14:30:09;;;;;;;4.90;3.10;;;;;;;;;;5081729;28;20016;-68
2022/05/06 14:32:34;;;;;;;4.25;3.25;;;;;;;;;;5082088;28;20050;-69
2022/05/06 14:35:16;;;;;;;4.43;2.95;;;;;;;;;;5081702;28;20027;-69
2022/05/06 14:37:41;;;;;;;4.78;3.05;;;;;;;;;;5082128;28;20496;-68
2022/05/06 14:40:07;;;;;;;7.50;3.08;;;;;;;;;;5081293;28;20016;-68
2022/05/06 14:42:32;;;;;;;5.47;2.92;;;;;;;;;;5081725;28;20020;-69
2022/05/06 14:44:59;;;;;;;10.43;3.90;;;;;;;;;;5080973;28;20046;-68
2022/05/06 14:47:24;;;;;;;5.55;3.55;;;;;;;;;;5081430;28;20032;-69
2022/05/06 14:49:50;;;;;;;5.40;2.95;;;;;;;;;;5080570;28;20034;-68
2022/05/06 14:52:16;;;;;;;6.10;3.40;;;;;;;;;;5081431;28;20044;-68
2022/05/06 14:54:41;;;;;;;5.90;3.42;;;;;;;;;;5080534;28;20024;-68
2022/05/06 14:57:06;;;;;;;5.90;3.58;;;;;;;;;;5080905;28;20443;-68
2022/05/06 14:59:32;;;;;;;6.60;3.55;;;;;;;;;;5080855;28;20426;-67
2022/05/06 15:01:57;;;;;;;8.48;3.80;;;;;;;;;;5080796;28;20606;-70
2022/05/06 15:04:23;;;;;;;10.00;4.82;;;;;;;;;;5080128;28;20097;-70
2022/05/06 15:06:48;;;;;;;6.20;5.07;;;;;;;;;;5080571;28;20074;-72
2022/05/06 15:09:19;;;;;;;10.52;4.47;;;;;;;;;;5080094;28;20358;-71
2022/05/06 15:11:44;;;;;;;7.25;4.45;;;;;;;;;;5079705;28;20127;-69
2022/05/06 15:14:10;;;;;;;7.80;4.82;;;;;;;;;;5084216;28;20110;-68
2022/05/06 15:16:35;;;;;;;6.28;4.15;;;;;;;;;;5083594;28;20043;-68
2022/05/06 15:21:44;;;;;;;4.07;3.67;;;;;;;;;;5083941;28;20358;-70
2022/05/06 15:24:09;;;;;;;6.80;4.40;;;;;;;;;;5083664;28;20040;-68
2022/05/06 15:26:35;;;;;;;6.05;4.10;;;;;;;;;;5084352;28;20012;-71
2022/05/06 15:29:00;;;;;;;8.18;4.15;;;;;;;;;;5083462;28;20525;-70